sensor_id;sensor_type;location;lat;lon;timestamp;P1;durP1;ratioP1;P2;durP2;ratioP2
9254;SDS011;4663;49.120;9.730;2023-07-16T00:00:46;59.30;;;56.30;;
9254;SDS011;4663;49.120;9.730;2023-07-16T00:03:12;53.78;;;50.88;;
9254;SDS011;4663;49.120;9.730;2023-07-16T00:05:39;56.45;;;53.30;;
9254;SDS011;4663;49.120;9.730;2023-07-16T00:08:04;57.97;;;54.92;;
9254;SDS011;4663;49.120;9.730;2023-07-16T00:10:30;52.92;;;50.30;;
9254;SDS011;4663;49.120;9.730;2023-07-16T00:12:57;56.08;;;53.28;;
9254;SDS011;4663;49.120;9.730;2023-07-16T00:15:23;50.65;;;47.88;;
9254;SDS011;4663;49.120;9.730;2023-07-16T00:17:48;49.92;;;47.22;;
9254;SDS011;4663;49.120;9.730;2023-07-16T00:20:13;49.88;;;47.33;;
9254;SDS011;4663;49.120;9.730;2023-07-16T00:22:39;51.08;;;48.60;;
9254;SDS011;4663;49.120;9.730;2023-07-16T00:25:05;51.70;;;49.25;;
9254;SDS011;4663;49.120;9.730;2023-07-16T00:27:31;50.85;;;48.28;;
9254;SDS011;4663;49.120;9.730;2023-07-16T00:29:56;48.55;;;46.05;;
9254;SDS011;4663;49.120;9.730;2023-07-16T00:32:22;47.35;;;44.88;;
9254;SDS011;4663;49.120;9.730;2023-07-16T00:34:47;48.65;;;46.25;;
9254;SDS011;4663;49.120;9.730;2023-07-16T00:37:12;49.60;;;47.05;;
9254;SDS011;4663;49.120;9.730;2023-07-16T00:39:38;46.20;;;43.88;;
9254;SDS011;4663;49.120;9.730;2023-07-16T00:42:03;47.92;;;45.55;;
9254;SDS011;4663;49.120;9.730;2023-07-16T00:44:29;44.88;;;42.58;;
9254;SDS011;4663;49.120;9.730;2023-07-16T00:46:54;47.33;;;44.95;;
9254;SDS011;4663;49.120;9.730;2023-07-16T00:49:19;47.08;;;44.78;;
9254;SDS011;4663;49.120;9.730;2023-07-16T00:51:45;42.60;;;40.17;;
9254;SDS011;4663;49.120;9.730;2023-07-16T00:54:11;40.50;;;38.58;;
9254;SDS011;4663;49.120;9.730;2023-07-16T00:56:37;42.70;;;40.40;;
9254;SDS011;4663;49.120;9.730;2023-07-16T00:59:03;37.05;;;35.30;;
9254;SDS011;4663;49.120;9.730;2023-07-16T01:01:28;35.92;;;34.15;;
9254;SDS011;4663;49.120;9.730;2023-07-16T01:03:54;37.67;;;35.83;;
9254;SDS011;4663;49.120;9.730;2023-07-16T01:06:28;35.58;;;33.70;;
9254;SDS011;4663;49.120;9.730;2023-07-16T01:09:03;32.45;;;30.95;;
9254;SDS011;4663;49.120;9.730;2023-07-16T01:11:32;35.08;;;33.33;;
9254;SDS011;4663;49.120;9.730;2023-07-16T01:14:00;31.63;;;30.10;;
9254;SDS011;4663;49.120;9.730;2023-07-16T01:16:27;32.67;;;30.75;;
9254;SDS011;4663;49.120;9.730;2023-07-16T01:18:52;32.65;;;31.00;;
9254;SDS011;4663;49.120;9.730;2023-07-16T01:21:18;32.78;;;31.23;;
9254;SDS011;4663;49.120;9.730;2023-07-16T01:29:38;35.20;;;33.35;;
9254;SDS011;4663;49.120;9.730;2023-07-16T01:32:09;35.97;;;34.22;;
9254;SDS011;4663;49.120;9.730;2023-07-16T01:34:37;39.00;;;37.15;;
9254;SDS011;4663;49.120;9.730;2023-07-16T01:37:04;36.60;;;34.90;;
9254;SDS011;4663;49.120;9.730;2023-07-16T01:39:30;42.05;;;40.00;;
9254;SDS011;4663;49.120;9.730;2023-07-16T01:41:59;41.45;;;39.55;;
9254;SDS011;4663;49.120;9.730;2023-07-16T01:44:25;39.90;;;37.80;;
9254;SDS011;4663;49.120;9.730;2023-07-16T01:49:46;42.35;;;40.28;;
9254;SDS011;4663;49.120;9.730;2023-07-16T01:52:12;36.38;;;34.67;;
9254;SDS011;4663;49.120;9.730;2023-07-16T01:54:37;39.42;;;37.53;;
9254;SDS011;4663;49.120;9.730;2023-07-16T01:57:03;38.65;;;36.85;;
9254;SDS011;4663;49.120;9.730;2023-07-16T01:59:29;37.83;;;35.83;;
9254;SDS011;4663;49.120;9.730;2023-07-16T02:01:54;40.42;;;38.20;;
9254;SDS011;4663;49.120;9.730;2023-07-16T02:04:20;38.67;;;36.83;;
9254;SDS011;4663;49.120;9.730;2023-07-16T02:06:45;37.25;;;35.53;;
9254;SDS011;4663;49.120;9.730;2023-07-16T02:09:12;35.33;;;33.58;;
9254;SDS011;4663;49.120;9.730;2023-07-16T02:11:38;37.28;;;35.47;;
9254;SDS011;4663;49.120;9.730;2023-07-16T02:14:03;34.47;;;32.80;;
9254;SDS011;4663;49.120;9.730;2023-07-16T02:16:28;32.13;;;30.63;;
9254;SDS011;4663;49.120;9.730;2023-07-16T02:18:54;30.83;;;29.42;;
9254;SDS011;4663;49.120;9.730;2023-07-16T02:21:19;32.70;;;31.20;;
9254;SDS011;4663;49.120;9.730;2023-07-16T02:23:45;34.58;;;32.88;;
9254;SDS011;4663;49.120;9.730;2023-07-16T02:26:10;39.28;;;37.22;;
9254;SDS011;4663;49.120;9.730;2023-07-16T02:28:35;34.45;;;32.75;;
9254;SDS011;4663;49.120;9.730;2023-07-16T02:31:01;34.97;;;33.17;;
9254;SDS011;4663;49.120;9.730;2023-07-16T02:33:27;36.63;;;34.80;;
9254;SDS011;4663;49.120;9.730;2023-07-16T02:35:52;39.28;;;37.38;;
9254;SDS011;4663;49.120;9.730;2023-07-16T02:38:17;41.58;;;39.20;;
9254;SDS011;4663;49.120;9.730;2023-07-16T02:40:46;41.92;;;39.92;;
9254;SDS011;4663;49.120;9.730;2023-07-16T02:43:13;43.10;;;40.95;;
9254;SDS011;4663;49.120;9.730;2023-07-16T02:45:39;45.17;;;43.05;;
9254;SDS011;4663;49.120;9.730;2023-07-16T02:48:04;47.28;;;44.97;;
9254;SDS011;4663;49.120;9.730;2023-07-16T02:50:34;43.92;;;41.83;;
9254;SDS011;4663;49.120;9.730;2023-07-16T02:53:03;50.63;;;48.20;;
9254;SDS011;4663;49.120;9.730;2023-07-16T02:55:30;45.75;;;43.65;;
9254;SDS011;4663;49.120;9.730;2023-07-16T02:57:55;50.38;;;47.85;;
9254;SDS011;4663;49.120;9.730;2023-07-16T03:00:21;45.78;;;43.65;;
9254;SDS011;4663;49.120;9.730;2023-07-16T03:02:46;45.97;;;43.63;;
9254;SDS011;4663;49.120;9.730;2023-07-16T03:05:12;49.60;;;47.17;;
9254;SDS011;4663;49.120;9.730;2023-07-16T03:07:37;54.67;;;52.08;;
9254;SDS011;4663;49.120;9.730;2023-07-16T03:10:02;50.38;;;47.97;;
9254;SDS011;4663;49.120;9.730;2023-07-16T03:12:28;49.05;;;46.53;;
9254;SDS011;4663;49.120;9.730;2023-07-16T03:14:53;47.17;;;44.97;;
9254;SDS011;4663;49.120;9.730;2023-07-16T03:17:20;49.80;;;47.30;;
9254;SDS011;4663;49.120;9.730;2023-07-16T03:19:47;51.60;;;49.20;;
9254;SDS011;4663;49.120;9.730;2023-07-16T03:22:12;51.75;;;49.30;;
9254;SDS011;4663;49.120;9.730;2023-07-16T03:24:38;50.58;;;48.15;;
9254;SDS011;4663;49.120;9.730;2023-07-16T03:27:03;49.33;;;46.95;;
9254;SDS011;4663;49.120;9.730;2023-07-16T03:29:29;48.63;;;46.22;;
9254;SDS011;4663;49.120;9.730;2023-07-16T03:31:54;49.15;;;46.83;;
9254;SDS011;4663;49.120;9.730;2023-07-16T03:34:19;48.25;;;45.85;;
9254;SDS011;4663;49.120;9.730;2023-07-16T03:36:45;45.50;;;43.25;;
9254;SDS011;4663;49.120;9.730;2023-07-16T03:39:11;49.28;;;46.85;;
9254;SDS011;4663;49.120;9.730;2023-07-16T03:41:36;44.60;;;42.40;;
9254;SDS011;4663;49.120;9.730;2023-07-16T03:44:01;45.42;;;43.25;;
9254;SDS011;4663;49.120;9.730;2023-07-16T03:46:27;44.75;;;42.50;;
9254;SDS011;4663;49.120;9.730;2023-07-16T03:48:53;47.90;;;45.53;;
9254;SDS011;4663;49.120;9.730;2023-07-16T03:51:18;46.05;;;43.88;;
9254;SDS011;4663;49.120;9.730;2023-07-16T03:53:44;44.20;;;41.97;;
9254;SDS011;4663;49.120;9.730;2023-07-16T03:56:09;44.97;;;42.83;;
9254;SDS011;4663;49.120;9.730;2023-07-16T03:58:34;48.47;;;46.17;;
9254;SDS011;4663;49.120;9.730;2023-07-16T04:01:00;50.25;;;47.63;;
9254;SDS011;4663;49.120;9.730;2023-07-16T04:03:25;49.45;;;47.00;;
9254;SDS011;4663;49.120;9.730;2023-07-16T04:05:50;46.45;;;44.10;;
9254;SDS011;4663;49.120;9.730;2023-07-16T04:08:16;47.20;;;44.95;;
9254;SDS011;4663;49.120;9.730;2023-07-16T04:10:41;48.80;;;46.47;;
9254;SDS011;4663;49.120;9.730;2023-07-16T04:13:07;54.13;;;51.50;;
9254;SDS011;4663;49.120;9.730;2023-07-16T04:15:32;53.58;;;50.88;;
9254;SDS011;4663;49.120;9.730;2023-07-16T04:17:57;49.83;;;47.42;;
9254;SDS011;4663;49.120;9.730;2023-07-16T04:20:23;52.85;;;50.17;;
9254;SDS011;4663;49.120;9.730;2023-07-16T04:22:48;47.15;;;44.80;;
9254;SDS011;4663;49.120;9.730;2023-07-16T04:25:13;51.70;;;48.90;;
9254;SDS011;4663;49.120;9.730;2023-07-16T04:27:39;46.33;;;43.78;;
9254;SDS011;4663;49.120;9.730;2023-07-16T04:30:06;49.17;;;46.53;;
9254;SDS011;4663;49.120;9.730;2023-07-16T04:32:32;48.15;;;45.75;;
9254;SDS011;4663;49.120;9.730;2023-07-16T04:34:57;48.63;;;46.03;;
9254;SDS011;4663;49.120;9.730;2023-07-16T04:37:23;46.78;;;44.33;;
9254;SDS011;4663;49.120;9.730;2023-07-16T04:39:48;50.40;;;47.88;;
9254;SDS011;4663;49.120;9.730;2023-07-16T04:42:13;51.22;;;48.63;;
9254;SDS011;4663;49.120;9.730;2023-07-16T04:44:39;52.28;;;49.63;;
9254;SDS011;4663;49.120;9.730;2023-07-16T04:47:04;46.42;;;44.20;;
9254;SDS011;4663;49.120;9.730;2023-07-16T04:49:30;46.20;;;43.55;;
9254;SDS011;4663;49.120;9.730;2023-07-16T04:51:56;48.58;;;45.88;;
9254;SDS011;4663;49.120;9.730;2023-07-16T04:54:22;45.13;;;42.88;;
9254;SDS011;4663;49.120;9.730;2023-07-16T04:56:47;42.80;;;40.67;;
9254;SDS011;4663;49.120;9.730;2023-07-16T04:59:12;43.45;;;41.30;;
9254;SDS011;4663;49.120;9.730;2023-07-16T05:01:38;41.45;;;39.28;;
9254;SDS011;4663;49.120;9.730;2023-07-16T05:04:03;42.65;;;40.10;;
9254;SDS011;4663;49.120;9.730;2023-07-16T05:06:29;42.42;;;40.08;;
9254;SDS011;4663;49.120;9.730;2023-07-16T05:08:54;44.17;;;41.83;;
9254;SDS011;4663;49.120;9.730;2023-07-16T05:11:19;43.85;;;41.53;;
9254;SDS011;4663;49.120;9.730;2023-07-16T05:13:45;41.35;;;39.25;;
9254;SDS011;4663;49.120;9.730;2023-07-16T05:16:10;41.97;;;39.88;;
9254;SDS011;4663;49.120;9.730;2023-07-16T05:18:35;41.72;;;39.67;;
9254;SDS011;4663;49.120;9.730;2023-07-16T05:21:01;40.78;;;38.55;;
9254;SDS011;4663;49.120;9.730;2023-07-16T05:23:26;39.58;;;37.38;;
9254;SDS011;4663;49.120;9.730;2023-07-16T05:25:52;39.67;;;37.42;;
9254;SDS011;4663;49.120;9.730;2023-07-16T05:28:18;39.20;;;37.33;;
9254;SDS011;4663;49.120;9.730;2023-07-16T05:30:44;39.88;;;37.97;;
9254;SDS011;4663;49.120;9.730;2023-07-16T05:33:12;39.42;;;37.53;;
9254;SDS011;4663;49.120;9.730;2023-07-16T05:35:38;38.40;;;36.47;;
9254;SDS011;4663;49.120;9.730;2023-07-16T05:38:04;38.97;;;36.88;;
9254;SDS011;4663;49.120;9.730;2023-07-16T05:40:30;41.88;;;39.72;;
9254;SDS011;4663;49.120;9.730;2023-07-16T05:42:55;40.70;;;38.67;;
9254;SDS011;4663;49.120;9.730;2023-07-16T05:45:21;39.88;;;37.90;;
9254;SDS011;4663;49.120;9.730;2023-07-16T05:47:46;40.42;;;38.35;;
9254;SDS011;4663;49.120;9.730;2023-07-16T05:50:11;38.78;;;36.63;;
9254;SDS011;4663;49.120;9.730;2023-07-16T05:52:37;42.38;;;40.10;;
9254;SDS011;4663;49.120;9.730;2023-07-16T05:55:02;36.83;;;34.92;;
9254;SDS011;4663;49.120;9.730;2023-07-16T05:57:28;37.08;;;35.08;;
9254;SDS011;4663;49.120;9.730;2023-07-16T05:59:53;38.63;;;36.47;;
9254;SDS011;4663;49.120;9.730;2023-07-16T06:02:18;40.78;;;38.67;;
9254;SDS011;4663;49.120;9.730;2023-07-16T06:04:44;38.88;;;36.90;;
9254;SDS011;4663;49.120;9.730;2023-07-16T06:07:09;40.10;;;38.05;;
9254;SDS011;4663;49.120;9.730;2023-07-16T06:09:34;41.55;;;38.70;;
9254;SDS011;4663;49.120;9.730;2023-07-16T06:12:00;38.47;;;36.28;;
9254;SDS011;4663;49.120;9.730;2023-07-16T06:14:25;38.70;;;36.70;;
9254;SDS011;4663;49.120;9.730;2023-07-16T06:16:51;39.63;;;37.63;;
9254;SDS011;4663;49.120;9.730;2023-07-16T06:19:17;38.97;;;37.00;;
9254;SDS011;4663;49.120;9.730;2023-07-16T06:21:42;43.63;;;40.70;;
9254;SDS011;4663;49.120;9.730;2023-07-16T06:24:08;43.90;;;41.53;;
9254;SDS011;4663;49.120;9.730;2023-07-16T06:26:34;41.50;;;39.50;;
9254;SDS011;4663;49.120;9.730;2023-07-16T06:28:59;38.00;;;35.88;;
9254;SDS011;4663;49.120;9.730;2023-07-16T06:31:24;31.23;;;29.35;;
9254;SDS011;4663;49.120;9.730;2023-07-16T06:33:50;29.70;;;27.85;;
9254;SDS011;4663;49.120;9.730;2023-07-16T06:36:15;28.90;;;27.13;;
9254;SDS011;4663;49.120;9.730;2023-07-16T06:38:41;29.08;;;27.25;;
9254;SDS011;4663;49.120;9.730;2023-07-16T06:41:06;29.73;;;27.95;;
9254;SDS011;4663;49.120;9.730;2023-07-16T06:43:32;27.67;;;26.30;;
9254;SDS011;4663;49.120;9.730;2023-07-16T06:45:57;27.77;;;26.20;;
9254;SDS011;4663;49.120;9.730;2023-07-16T06:48:23;25.08;;;23.70;;
9254;SDS011;4663;49.120;9.730;2023-07-16T06:50:49;23.27;;;22.08;;
9254;SDS011;4663;49.120;9.730;2023-07-16T06:53:15;25.63;;;24.05;;
9254;SDS011;4663;49.120;9.730;2023-07-16T06:55:40;27.88;;;26.10;;
9254;SDS011;4663;49.120;9.730;2023-07-16T06:58:09;26.38;;;24.88;;
9254;SDS011;4663;49.120;9.730;2023-07-16T07:00:35;27.50;;;25.55;;
9254;SDS011;4663;49.120;9.730;2023-07-16T07:03:01;23.65;;;22.33;;
9254;SDS011;4663;49.120;9.730;2023-07-16T07:05:26;23.73;;;22.42;;
9254;SDS011;4663;49.120;9.730;2023-07-16T07:07:51;25.10;;;23.45;;
9254;SDS011;4663;49.120;9.730;2023-07-16T07:10:17;24.90;;;23.52;;
9254;SDS011;4663;49.120;9.730;2023-07-16T07:12:42;23.58;;;22.15;;
9254;SDS011;4663;49.120;9.730;2023-07-16T07:15:08;24.67;;;23.27;;
9254;SDS011;4663;49.120;9.730;2023-07-16T07:17:33;24.77;;;23.42;;
9254;SDS011;4663;49.120;9.730;2023-07-16T07:19:59;31.73;;;29.85;;
9254;SDS011;4663;49.120;9.730;2023-07-16T07:22:27;27.15;;;25.52;;
9254;SDS011;4663;49.120;9.730;2023-07-16T07:24:53;27.90;;;26.27;;
9254;SDS011;4663;49.120;9.730;2023-07-16T07:27:18;30.73;;;28.92;;
9254;SDS011;4663;49.120;9.730;2023-07-16T07:29:44;28.15;;;26.30;;
9254;SDS011;4663;49.120;9.730;2023-07-16T07:32:11;23.35;;;21.73;;
9254;SDS011;4663;49.120;9.730;2023-07-16T07:34:38;25.02;;;23.63;;
9254;SDS011;4663;49.120;9.730;2023-07-16T07:37:03;25.17;;;23.88;;
9254;SDS011;4663;49.120;9.730;2023-07-16T07:39:29;23.67;;;22.38;;
9254;SDS011;4663;49.120;9.730;2023-07-16T07:41:54;21.95;;;20.83;;
9254;SDS011;4663;49.120;9.730;2023-07-16T07:44:20;24.83;;;23.15;;
9254;SDS011;4663;49.120;9.730;2023-07-16T07:46:45;30.85;;;29.00;;
9254;SDS011;4663;49.120;9.730;2023-07-16T07:49:11;28.45;;;26.83;;
9254;SDS011;4663;49.120;9.730;2023-07-16T07:51:36;35.75;;;33.83;;
9254;SDS011;4663;49.120;9.730;2023-07-16T07:54:01;29.23;;;27.73;;
9254;SDS011;4663;49.120;9.730;2023-07-16T07:56:27;26.60;;;25.00;;
9254;SDS011;4663;49.120;9.730;2023-07-16T07:58:52;31.65;;;29.73;;
9254;SDS011;4663;49.120;9.730;2023-07-16T08:01:17;22.98;;;21.77;;
9254;SDS011;4663;49.120;9.730;2023-07-16T08:03:43;25.15;;;23.88;;
9254;SDS011;4663;49.120;9.730;2023-07-16T08:06:08;21.55;;;20.42;;
9254;SDS011;4663;49.120;9.730;2023-07-16T08:08:36;20.55;;;19.42;;
9254;SDS011;4663;49.120;9.730;2023-07-16T08:11:02;27.13;;;25.75;;
9254;SDS011;4663;49.120;9.730;2023-07-16T08:13:27;24.60;;;23.30;;
9254;SDS011;4663;49.120;9.730;2023-07-16T08:15:52;25.33;;;23.73;;
9254;SDS011;4663;49.120;9.730;2023-07-16T08:18:18;24.38;;;23.05;;
9254;SDS011;4663;49.120;9.730;2023-07-16T08:20:43;21.95;;;20.73;;
9254;SDS011;4663;49.120;9.730;2023-07-16T08:23:09;20.85;;;19.75;;
9254;SDS011;4663;49.120;9.730;2023-07-16T08:25:34;20.88;;;19.77;;
9254;SDS011;4663;49.120;9.730;2023-07-16T08:28:01;19.65;;;18.52;;
9254;SDS011;4663;49.120;9.730;2023-07-16T08:30:27;22.50;;;20.98;;
9254;SDS011;4663;49.120;9.730;2023-07-16T08:32:53;24.25;;;22.90;;
9254;SDS011;4663;49.120;9.730;2023-07-16T08:35:18;24.42;;;23.13;;
9254;SDS011;4663;49.120;9.730;2023-07-16T08:37:45;30.17;;;28.52;;
9254;SDS011;4663;49.120;9.730;2023-07-16T08:40:11;24.20;;;22.67;;
9254;SDS011;4663;49.120;9.730;2023-07-16T08:42:38;24.92;;;23.42;;
9254;SDS011;4663;49.120;9.730;2023-07-16T08:45:08;20.65;;;19.45;;
9254;SDS011;4663;49.120;9.730;2023-07-16T08:47:35;21.85;;;20.63;;
9254;SDS011;4663;49.120;9.730;2023-07-16T08:50:00;19.38;;;18.25;;
9254;SDS011;4663;49.120;9.730;2023-07-16T08:52:26;23.40;;;21.95;;
9254;SDS011;4663;49.120;9.730;2023-07-16T08:54:53;27.42;;;25.73;;
9254;SDS011;4663;49.120;9.730;2023-07-16T08:57:20;25.92;;;24.52;;
9254;SDS011;4663;49.120;9.730;2023-07-16T08:59:49;25.55;;;24.05;;
9254;SDS011;4663;49.120;9.730;2023-07-16T09:02:19;24.60;;;23.10;;
9254;SDS011;4663;49.120;9.730;2023-07-16T09:04:48;26.40;;;25.02;;
9254;SDS011;4663;49.120;9.730;2023-07-16T09:07:14;25.70;;;24.25;;
9254;SDS011;4663;49.120;9.730;2023-07-16T09:09:41;25.73;;;24.33;;
9254;SDS011;4663;49.120;9.730;2023-07-16T09:12:06;20.52;;;19.30;;
9254;SDS011;4663;49.120;9.730;2023-07-16T09:14:36;21.92;;;20.63;;
9254;SDS011;4663;49.120;9.730;2023-07-16T09:17:01;22.25;;;20.85;;
9254;SDS011;4663;49.120;9.730;2023-07-16T09:19:27;23.85;;;22.55;;
9254;SDS011;4663;49.120;9.730;2023-07-16T09:21:52;23.25;;;21.85;;
9254;SDS011;4663;49.120;9.730;2023-07-16T09:24:18;20.35;;;19.35;;
9254;SDS011;4663;49.120;9.730;2023-07-16T09:26:50;20.88;;;19.67;;
9254;SDS011;4663;49.120;9.730;2023-07-16T09:29:17;20.50;;;19.40;;
9254;SDS011;4663;49.120;9.730;2023-07-16T09:34:17;23.02;;;21.60;;
9254;SDS011;4663;49.120;9.730;2023-07-16T09:36:43;21.98;;;20.67;;
9254;SDS011;4663;49.120;9.730;2023-07-16T09:39:08;21.63;;;20.42;;
9254;SDS011;4663;49.120;9.730;2023-07-16T09:41:34;21.98;;;20.80;;
9254;SDS011;4663;49.120;9.730;2023-07-16T09:44:00;24.52;;;22.80;;
9254;SDS011;4663;49.120;9.730;2023-07-16T09:46:26;24.58;;;22.88;;
9254;SDS011;4663;49.120;9.730;2023-07-16T09:48:51;22.30;;;21.08;;
9254;SDS011;4663;49.120;9.730;2023-07-16T09:51:17;25.77;;;24.38;;
9254;SDS011;4663;49.120;9.730;2023-07-16T09:53:44;21.35;;;20.00;;
9254;SDS011;4663;49.120;9.730;2023-07-16T09:56:11;19.83;;;18.73;;
9254;SDS011;4663;49.120;9.730;2023-07-16T09:58:38;22.65;;;21.20;;
9254;SDS011;4663;49.120;9.730;2023-07-16T10:01:04;26.70;;;25.30;;
9254;SDS011;4663;49.120;9.730;2023-07-16T10:03:31;29.05;;;27.67;;
9254;SDS011;4663;49.120;9.730;2023-07-16T10:06:05;31.85;;;30.27;;
9254;SDS011;4663;49.120;9.730;2023-07-16T10:08:33;32.85;;;30.95;;
9254;SDS011;4663;49.120;9.730;2023-07-16T10:11:02;36.13;;;34.33;;
9254;SDS011;4663;49.120;9.730;2023-07-16T10:13:28;34.05;;;32.40;;
9254;SDS011;4663;49.120;9.730;2023-07-16T10:15:54;33.85;;;32.25;;
9254;SDS011;4663;49.120;9.730;2023-07-16T10:20:59;30.20;;;28.65;;
9254;SDS011;4663;49.120;9.730;2023-07-16T10:23:25;29.90;;;28.40;;
9254;SDS011;4663;49.120;9.730;2023-07-16T10:26:02;28.33;;;26.85;;
9254;SDS011;4663;49.120;9.730;2023-07-16T10:28:31;23.27;;;22.10;;
9254;SDS011;4663;49.120;9.730;2023-07-16T10:30:57;23.85;;;22.40;;
9254;SDS011;4663;49.120;9.730;2023-07-16T10:33:23;21.98;;;20.83;;
9254;SDS011;4663;49.120;9.730;2023-07-16T10:35:49;21.63;;;20.33;;
9254;SDS011;4663;49.120;9.730;2023-07-16T10:38:14;21.75;;;20.45;;
9254;SDS011;4663;49.120;9.730;2023-07-16T10:40:40;20.63;;;19.52;;
9254;SDS011;4663;49.120;9.730;2023-07-16T10:43:07;20.73;;;19.65;;
9254;SDS011;4663;49.120;9.730;2023-07-16T10:45:33;21.23;;;20.23;;
9254;SDS011;4663;49.120;9.730;2023-07-16T10:47:58;20.88;;;19.83;;
9254;SDS011;4663;49.120;9.730;2023-07-16T10:50:24;22.52;;;21.38;;
9254;SDS011;4663;49.120;9.730;2023-07-16T10:52:53;23.08;;;21.88;;
9254;SDS011;4663;49.120;9.730;2023-07-16T10:55:19;25.08;;;23.88;;
9254;SDS011;4663;49.120;9.730;2023-07-16T10:57:48;23.48;;;22.30;;
9254;SDS011;4663;49.120;9.730;2023-07-16T11:00:15;24.73;;;23.45;;
9254;SDS011;4663;49.120;9.730;2023-07-16T11:02:42;22.33;;;21.27;;
9254;SDS011;4663;49.120;9.730;2023-07-16T11:05:15;24.50;;;23.23;;
9254;SDS011;4663;49.120;9.730;2023-07-16T11:07:44;23.45;;;22.05;;
9254;SDS011;4663;49.120;9.730;2023-07-16T11:10:10;25.40;;;24.00;;
9254;SDS011;4663;49.120;9.730;2023-07-16T11:12:36;24.02;;;22.73;;
9254;SDS011;4663;49.120;9.730;2023-07-16T11:15:02;20.83;;;19.73;;
9254;SDS011;4663;49.120;9.730;2023-07-16T11:17:28;20.50;;;19.30;;
9254;SDS011;4663;49.120;9.730;2023-07-16T11:19:53;23.92;;;22.70;;
9254;SDS011;4663;49.120;9.730;2023-07-16T11:22:24;22.52;;;21.17;;
9254;SDS011;4663;49.120;9.730;2023-07-16T11:24:51;23.33;;;22.10;;
9254;SDS011;4663;49.120;9.730;2023-07-16T11:29:47;20.98;;;19.85;;
9254;SDS011;4663;49.120;9.730;2023-07-16T11:32:25;20.08;;;18.83;;
9254;SDS011;4663;49.120;9.730;2023-07-16T11:35:07;21.00;;;19.90;;
9254;SDS011;4663;49.120;9.730;2023-07-16T11:37:33;20.92;;;19.75;;
9254;SDS011;4663;49.120;9.730;2023-07-16T11:40:01;20.05;;;19.05;;
9254;SDS011;4663;49.120;9.730;2023-07-16T11:42:29;20.13;;;19.13;;
9254;SDS011;4663;49.120;9.730;2023-07-16T11:44:57;23.00;;;21.63;;
9254;SDS011;4663;49.120;9.730;2023-07-16T11:47:23;20.10;;;18.67;;
9254;SDS011;4663;49.120;9.730;2023-07-16T11:49:49;19.05;;;17.95;;
9254;SDS011;4663;49.120;9.730;2023-07-16T11:52:18;19.70;;;18.60;;
9254;SDS011;4663;49.120;9.730;2023-07-16T11:54:45;20.40;;;19.30;;
9254;SDS011;4663;49.120;9.730;2023-07-16T11:57:10;21.58;;;20.48;;
9254;SDS011;4663;49.120;9.730;2023-07-16T11:59:36;18.70;;;17.80;;
9254;SDS011;4663;49.120;9.730;2023-07-16T12:02:01;19.38;;;18.27;;
9254;SDS011;4663;49.120;9.730;2023-07-16T12:04:27;24.13;;;22.90;;
9254;SDS011;4663;49.120;9.730;2023-07-16T12:06:53;26.80;;;25.40;;
9254;SDS011;4663;49.120;9.730;2023-07-16T12:09:18;26.85;;;25.42;;
9254;SDS011;4663;49.120;9.730;2023-07-16T12:11:44;24.75;;;23.55;;
9254;SDS011;4663;49.120;9.730;2023-07-16T12:14:09;27.05;;;25.55;;
9254;SDS011;4663;49.120;9.730;2023-07-16T12:16:35;24.08;;;22.80;;
9254;SDS011;4663;49.120;9.730;2023-07-16T12:19:00;26.00;;;24.70;;
9254;SDS011;4663;49.120;9.730;2023-07-16T12:21:26;22.75;;;21.65;;
9254;SDS011;4663;49.120;9.730;2023-07-16T12:23:51;24.92;;;23.58;;
9254;SDS011;4663;49.120;9.730;2023-07-16T12:26:17;25.63;;;24.27;;
9254;SDS011;4663;49.120;9.730;2023-07-16T12:28:42;27.40;;;25.70;;
9254;SDS011;4663;49.120;9.730;2023-07-16T12:31:07;26.83;;;25.48;;
9254;SDS011;4663;49.120;9.730;2023-07-16T12:33:33;21.90;;;20.85;;
9254;SDS011;4663;49.120;9.730;2023-07-16T12:35:58;22.95;;;21.80;;
9254;SDS011;4663;49.120;9.730;2023-07-16T12:38:23;23.92;;;22.63;;
9254;SDS011;4663;49.120;9.730;2023-07-16T12:40:49;23.45;;;22.23;;
9254;SDS011;4663;49.120;9.730;2023-07-16T12:43:14;26.35;;;24.73;;
9254;SDS011;4663;49.120;9.730;2023-07-16T12:45:40;30.58;;;28.95;;
9254;SDS011;4663;49.120;9.730;2023-07-16T12:48:05;34.30;;;32.60;;
9254;SDS011;4663;49.120;9.730;2023-07-16T12:50:31;33.45;;;31.77;;
9254;SDS011;4663;49.120;9.730;2023-07-16T12:52:56;33.33;;;31.63;;
9254;SDS011;4663;49.120;9.730;2023-07-16T12:55:22;32.47;;;30.88;;
9254;SDS011;4663;49.120;9.730;2023-07-16T12:57:48;35.47;;;33.70;;
9254;SDS011;4663;49.120;9.730;2023-07-16T13:00:13;34.58;;;32.78;;
9254;SDS011;4663;49.120;9.730;2023-07-16T13:02:39;34.38;;;32.67;;
9254;SDS011;4663;49.120;9.730;2023-07-16T13:05:04;36.35;;;34.47;;
9254;SDS011;4663;49.120;9.730;2023-07-16T13:07:30;35.50;;;33.80;;
9254;SDS011;4663;49.120;9.730;2023-07-16T13:09:59;34.70;;;33.00;;
9254;SDS011;4663;49.120;9.730;2023-07-16T13:12:24;36.38;;;34.60;;
9254;SDS011;4663;49.120;9.730;2023-07-16T13:14:50;36.45;;;34.50;;
9254;SDS011;4663;49.120;9.730;2023-07-16T13:17:16;36.47;;;34.70;;
9254;SDS011;4663;49.120;9.730;2023-07-16T13:19:42;38.17;;;36.08;;
9254;SDS011;4663;49.120;9.730;2023-07-16T13:22:08;38.22;;;36.35;;
9254;SDS011;4663;49.120;9.730;2023-07-16T13:24:33;35.72;;;34.03;;
9254;SDS011;4663;49.120;9.730;2023-07-16T13:26:58;32.92;;;31.25;;
9254;SDS011;4663;49.120;9.730;2023-07-16T13:29:24;32.38;;;30.67;;
9254;SDS011;4663;49.120;9.730;2023-07-16T13:31:49;33.13;;;31.58;;
9254;SDS011;4663;49.120;9.730;2023-07-16T13:34:15;36.35;;;34.55;;
9254;SDS011;4663;49.120;9.730;2023-07-16T13:36:40;30.98;;;29.42;;
9254;SDS011;4663;49.120;9.730;2023-07-16T13:39:05;28.58;;;27.13;;
9254;SDS011;4663;49.120;9.730;2023-07-16T13:41:31;27.17;;;25.77;;
9254;SDS011;4663;49.120;9.730;2023-07-16T13:43:57;26.95;;;25.65;;
9254;SDS011;4663;49.120;9.730;2023-07-16T13:46:22;26.23;;;24.92;;
9254;SDS011;4663;49.120;9.730;2023-07-16T13:48:48;28.15;;;26.75;;
9254;SDS011;4663;49.120;9.730;2023-07-16T13:51:13;29.45;;;28.05;;
9254;SDS011;4663;49.120;9.730;2023-07-16T13:53:38;25.85;;;24.38;;
9254;SDS011;4663;49.120;9.730;2023-07-16T13:56:04;28.88;;;27.48;;
9254;SDS011;4663;49.120;9.730;2023-07-16T13:58:29;27.15;;;25.85;;
9254;SDS011;4663;49.120;9.730;2023-07-16T14:00:55;26.40;;;25.05;;
9254;SDS011;4663;49.120;9.730;2023-07-16T14:03:20;26.35;;;24.95;;
9254;SDS011;4663;49.120;9.730;2023-07-16T14:05:45;28.98;;;27.50;;
9254;SDS011;4663;49.120;9.730;2023-07-16T14:08:11;32.42;;;30.88;;
9254;SDS011;4663;49.120;9.730;2023-07-16T14:10:36;31.88;;;30.27;;
9254;SDS011;4663;49.120;9.730;2023-07-16T14:13:01;32.13;;;30.63;;
9254;SDS011;4663;49.120;9.730;2023-07-16T14:15:27;30.15;;;28.50;;
9254;SDS011;4663;49.120;9.730;2023-07-16T14:17:52;30.58;;;29.00;;
9254;SDS011;4663;49.120;9.730;2023-07-16T14:20:18;35.65;;;33.90;;
9254;SDS011;4663;49.120;9.730;2023-07-16T14:22:43;34.83;;;32.90;;
9254;SDS011;4663;49.120;9.730;2023-07-16T14:25:10;35.58;;;33.78;;
9254;SDS011;4663;49.120;9.730;2023-07-16T14:27:35;31.95;;;30.30;;
9254;SDS011;4663;49.120;9.730;2023-07-16T14:30:00;36.90;;;35.10;;
9254;SDS011;4663;49.120;9.730;2023-07-16T14:32:26;36.10;;;34.40;;
9254;SDS011;4663;49.120;9.730;2023-07-16T14:34:51;38.65;;;36.75;;
9254;SDS011;4663;49.120;9.730;2023-07-16T14:37:17;39.92;;;37.92;;
9254;SDS011;4663;49.120;9.730;2023-07-16T14:39:42;31.63;;;30.13;;
9254;SDS011;4663;49.120;9.730;2023-07-16T14:42:08;29.70;;;28.20;;
9254;SDS011;4663;49.120;9.730;2023-07-16T14:44:34;25.00;;;23.77;;
9254;SDS011;4663;49.120;9.730;2023-07-16T14:46:59;25.35;;;24.08;;
9254;SDS011;4663;49.120;9.730;2023-07-16T14:49:25;22.52;;;21.42;;
9254;SDS011;4663;49.120;9.730;2023-07-16T14:51:50;21.88;;;20.77;;
9254;SDS011;4663;49.120;9.730;2023-07-16T14:54:16;21.27;;;20.17;;
9254;SDS011;4663;49.120;9.730;2023-07-16T14:56:42;21.08;;;20.08;;